地図

経路データ

SID SEASON NUMBER BASIN SUBBASIN NAME ISO_TIME NATURE LAT LON WMO_WIND WMO_PRES WMO_AGENCY TRACK_TYPE DIST2LAND LANDFALL IFLAG USA_AGENCY USA_ATCF_ID USA_LAT USA_LON USA_RECORD USA_STATUS USA_WIND USA_PRES USA_SSHS USA_R34_NE USA_R34_SE USA_R34_SW USA_R34_NW USA_R50_NE USA_R50_SE USA_R50_SW USA_R50_NW USA_R64_NE USA_R64_SE USA_R64_SW USA_R64_NW USA_POCI USA_ROCI USA_RMW USA_EYE TOKYO_LAT TOKYO_LON TOKYO_GRADE TOKYO_WIND TOKYO_PRES TOKYO_R50_DIR TOKYO_R50_LONG TOKYO_R50_SHORT TOKYO_R30_DIR TOKYO_R30_LONG TOKYO_R30_SHORT TOKYO_LAND CMA_LAT CMA_LON CMA_CAT CMA_WIND CMA_PRES HKO_LAT HKO_LON HKO_CAT HKO_WIND HKO_PRES NEWDELHI_LAT NEWDELHI_LON NEWDELHI_GRADE NEWDELHI_WIND NEWDELHI_PRES NEWDELHI_CI NEWDELHI_DP NEWDELHI_POCI REUNION_LAT REUNION_LON REUNION_TYPE REUNION_WIND REUNION_PRES REUNION_TNUM REUNION_CI REUNION_RMW REUNION_R34_NE REUNION_R34_SE REUNION_R34_SW REUNION_R34_NW REUNION_R50_NE REUNION_R50_SE REUNION_R50_SW REUNION_R50_NW REUNION_R64_NE REUNION_R64_SE REUNION_R64_SW REUNION_R64_NW BOM_LAT BOM_LON BOM_TYPE BOM_WIND BOM_PRES BOM_TNUM BOM_CI BOM_RMW BOM_R34_NE BOM_R34_SE BOM_R34_SW BOM_R34_NW BOM_R50_NE BOM_R50_SE BOM_R50_SW BOM_R50_NW BOM_R64_NE BOM_R64_SE BOM_R64_SW BOM_R64_NW BOM_ROCI BOM_POCI BOM_EYE BOM_POS_METHOD BOM_PRES_METHOD NADI_LAT NADI_LON NADI_CAT NADI_WIND NADI_PRES WELLINGTON_LAT WELLINGTON_LON WELLINGTON_WIND WELLINGTON_PRES DS824_LAT DS824_LON DS824_STAGE DS824_WIND DS824_PRES TD9636_LAT TD9636_LON TD9636_STAGE TD9636_WIND TD9636_PRES TD9635_LAT TD9635_LON TD9635_WIND TD9635_PRES TD9635_ROCI NEUMANN_LAT NEUMANN_LON NEUMANN_CLASS NEUMANN_WIND NEUMANN_PRES MLC_LAT MLC_LON MLC_CLASS MLC_WIND MLC_PRES USA_GUST BOM_GUST BOM_GUST_PER REUNION_GUST REUNION_GUST_PER USA_SEAHGT USA_SEARAD_NE USA_SEARAD_SE USA_SEARAD_SW USA_SEARAD_NW STORM_SPEED STORM_DIR
1974223N38290 1974 75 NA NA NOT_NAMED 1974-08-10 12:00:00 SS 38.0000 -70.0000 35 1012 hurdat_atl main 383 383 O_____________ hurdat_atl AL061974 38.0000 -70.0000 SS 35 1012 -2 10 163
1974223N38290 1974 75 NA NA NOT_NAMED 1974-08-10 15:00:00 SS 37.5301 -69.8094 main 439 439 P_____________ AL061974 37.5301 -69.8094 SS 35 -2 10 161
1974223N38290 1974 75 NA NA NOT_NAMED 1974-08-10 18:00:00 SS 37.1000 -69.6000 35 hurdat_atl main 486 486 O_____________ hurdat_atl AL061974 37.1000 -69.6000 SS 35 -2 9 155
1974223N38290 1974 75 NA NA NOT_NAMED 1974-08-10 21:00:00 SS 36.7347 -69.3456 main 536 536 P_____________ AL061974 36.7347 -69.3456 SS 35 -2 9 145
1974223N38290 1974 75 NA NA NOT_NAMED 1974-08-11 00:00:00 SS 36.4000 -69.0000 35 hurdat_atl main 577 577 O_____________ hurdat_atl AL061974 36.4000 -69.0000 SS 35 -2 10 138
1974223N38290 1974 75 NA NA NOT_NAMED 1974-08-11 03:00:00 SS 36.0126 -68.5293 main 629 629 P_____________ AL061974 36.0126 -68.5293 SS 35 -2 11 131
1974223N38290 1974 75 NA NA NOT_NAMED 1974-08-11 06:00:00 SS 35.7000 -68.0000 35 hurdat_atl main 675 675 O_____________ hurdat_atl AL061974 35.7000 -68.0000 SS 35 -2 10 121
1974223N38290 1974 75 NA NA NOT_NAMED 1974-08-11 09:00:00 SS 35.5173 -67.5000 main 721 721 P_____________ AL061974 35.5173 -67.5000 SS 37 -2 8 104
1974223N38290 1974 75 NA NA NOT_NAMED 1974-08-11 12:00:00 SS 35.5000 -67.0000 40 hurdat_atl main 737 736 O_____________ hurdat_atl AL061974 35.5000 -67.0000 SS 40 -2 8 82
1974223N38290 1974 75 NA NA NOT_NAMED 1974-08-11 15:00:00 SS 35.6401 -66.4706 main 743 728 P_____________ AL061974 35.6401 -66.4706 SS 40 -2 9 64
1974223N38290 1974 75 NA NA NOT_NAMED 1974-08-11 18:00:00 SS 35.9000 -66.0000 40 hurdat_atl main 732 715 O_____________ hurdat_atl AL061974 35.9000 -66.0000 SS 40 -2 9 50
1974223N38290 1974 75 NA NA NOT_NAMED 1974-08-11 21:00:00 SS 36.2148 -65.6328 main 720 700 P_____________ AL061974 36.2148 -65.6328 SS 40 -2 8 39
1974223N38290 1974 75 NA NA NOT_NAMED 1974-08-12 00:00:00 SS 36.5000 -65.4000 40 hurdat_atl main 700 696 O_____________ hurdat_atl AL061974 36.5000 -65.4000 SS 40 -2 5 33
1974223N38290 1974 75 NA NA NOT_NAMED 1974-08-12 03:00:00 SS 36.6224 -65.2971 main 696 687 P_____________ AL061974 36.6224 -65.2971 SS 40 -2 2 23
1974223N38290 1974 75 NA NA NOT_NAMED 1974-08-12 06:00:00 SS 36.7000 -65.3000 40 hurdat_atl main 687 678 O_____________ hurdat_atl AL061974 36.7000 -65.3000 SS 40 -2 2 348
1974223N38290 1974 75 NA NA NOT_NAMED 1974-08-12 09:00:00 SS 36.8275 -65.3350 main 678 654 P_____________ AL061974 36.8275 -65.3350 SS 40 -2 3 346
1974223N38290 1974 75 NA NA NOT_NAMED 1974-08-12 12:00:00 SS 37.0000 -65.4000 40 1007 hurdat_atl main 654 631 O_____________ hurdat_atl AL061974 37.0000 -65.4000 SS 40 1007 -2 4 347
1974223N38290 1974 75 NA NA NOT_NAMED 1974-08-12 15:00:00 SS 37.2350 -65.4574 main 631 605 P_____________ AL061974 37.2350 -65.4574 SS 40 -2 5 351
1974223N38290 1974 75 NA NA NOT_NAMED 1974-08-12 18:00:00 SS 37.5000 -65.5000 40 hurdat_atl main 605 587 O_____________ hurdat_atl AL061974 37.5000 -65.5000 SS 40 -2 5 357
1974223N38290 1974 75 NA NA NOT_NAMED 1974-08-12 21:00:00 SS 37.7500 -65.5076 main 579 562 P_____________ AL061974 37.7500 -65.5076 SS 40 -2 5 2
1974223N38290 1974 75 NA NA NOT_NAMED 1974-08-13 00:00:00 SS 38.0000 -65.5000 40 hurdat_atl main 562 545 O_____________ hurdat_atl AL061974 38.0000 -65.5000 SS 40 -2 5 2
1974223N38290 1974 75 NA NA NOT_NAMED 1974-08-13 03:00:00 SS 38.2500 -65.5000 main 537 521 P_____________ AL061974 38.2500 -65.5000 SS 40 -2 5 2
1974223N38290 1974 75 NA NA NOT_NAMED 1974-08-13 06:00:00 SS 38.5000 -65.5000 40 hurdat_atl main 521 506 O_____________ hurdat_atl AL061974 38.5000 -65.5000 SS 40 -2 5 355
1974223N38290 1974 75 NA NA NOT_NAMED 1974-08-13 09:00:00 SS 38.7499 -65.5445 main 506 484 P_____________ AL061974 38.7499 -65.5445 SS 40 -2 5 2
1974223N38290 1974 75 NA NA NOT_NAMED 1974-08-13 12:00:00 SS 39.0000 -65.5000 40 1003 hurdat_atl main 484 477 O_____________ hurdat_atl AL061974 39.0000 -65.5000 SS 40 1003 -2 5 24
1974223N38290 1974 75 NA NA NOT_NAMED 1974-08-13 15:00:00 SS 39.2499 -65.2675 main 478 445 P_____________ AL061974 39.2499 -65.2675 SS 40 -2 7 43
1974223N38290 1974 75 NA NA NOT_NAMED 1974-08-13 18:00:00 SS 39.5000 -64.9000 40 hurdat_atl main 446 426 O_____________ hurdat_atl AL061974 39.5000 -64.9000 SS 40 -2 8 54
1974223N38290 1974 75 NA NA NOT_NAMED 1974-08-13 21:00:00 SS 39.7356 -64.4056 main 429 403 P_____________ AL061974 39.7356 -64.4056 SS 42 -2 9 54
1974223N38290 1974 75 NA NA NOT_NAMED 1974-08-14 00:00:00 SS 40.0000 -64.0000 45 hurdat_atl main 403 374 O_____________ hurdat_atl AL061974 40.0000 -64.0000 SS 45 -2 7 32
1974223N38290 1974 75 NA NA NOT_NAMED 1974-08-14 03:00:00 SS 40.3272 -63.9317 main 374 329 P_____________ AL061974 40.3272 -63.9317 SS 45 -2 7 0
1974223N38290 1974 75 NA NA NOT_NAMED 1974-08-14 06:00:00 SS 40.7000 -64.0000 45 hurdat_atl main 329 284 O_____________ hurdat_atl AL061974 40.7000 -64.0000 SS 45 -2 8 350
1974223N38290 1974 75 NA NA NOT_NAMED 1974-08-14 09:00:00 SS 41.0843 -64.1029 main 284 246 P_____________ AL061974 41.0843 -64.1029 SS 47 -2 8 1
1974223N38290 1974 75 NA NA NOT_NAMED 1974-08-14 12:00:00 SS 41.5000 -64.0000 50 992 hurdat_atl main 246 225 O_____________ hurdat_atl AL061974 41.5000 -64.0000 SS 50 992 -2 10 28
1974223N38290 1974 75 NA NA NOT_NAMED 1974-08-14 15:00:00 SS 41.9262 -63.4934 main 230 221 P_____________ AL061974 41.9262 -63.4934 SS 50 -2 14 49
1974223N38290 1974 75 NA NA NOT_NAMED 1974-08-14 18:00:00 SS 42.4000 -62.6000 50 hurdat_atl main 236 225 O_____________ hurdat_atl AL061974 42.4000 -62.6000 SS 50 -2 18 57
1974223N38290 1974 75 NA NA NOT_NAMED 1974-08-14 21:00:00 SS 42.9367 -61.3911 main 228 204 P_____________ AL061974 42.9367 -61.3911 SS 47 -2 22 60
1974223N38290 1974 75 NA NA NOT_NAMED 1974-08-15 00:00:00 SS 43.5000 -60.0000 45 hurdat_atl main 208 O_____________ hurdat_atl AL061974 43.5000 -60.0000 SS 45 -2 23 61

IBTrACS Databaseについて

本データベースは、米国NOAAが公開する1842年以降の世界の熱帯低気圧のベストトラックデータアーカイブInternational Best Track Archive for Climate Stewardship (IBTrACS)を、ウェブで閲覧しやすい形式に変換したものです。

最終更新日:2021-10-08